sensor_id;sensor_type;location;lat;lon;timestamp;P1;durP1;ratioP1;P2;durP2;ratioP2
33844;SDS011;20145;43.118;25.694;2023-04-08T00:01:21;25.08;;;21.17;;
33844;SDS011;20145;43.118;25.694;2023-04-08T00:03:47;23.63;;;21.13;;
33844;SDS011;20145;43.118;25.694;2023-04-08T00:06:12;24.92;;;21.27;;
33844;SDS011;20145;43.118;25.694;2023-04-08T00:08:38;24.77;;;22.02;;
33844;SDS011;20145;43.118;25.694;2023-04-08T00:11:03;24.70;;;22.02;;
33844;SDS011;20145;43.118;25.694;2023-04-08T00:13:29;24.08;;;21.52;;
33844;SDS011;20145;43.118;25.694;2023-04-08T00:15:55;27.95;;;22.67;;
33844;SDS011;20145;43.118;25.694;2023-04-08T00:18:20;29.75;;;24.15;;
33844;SDS011;20145;43.118;25.694;2023-04-08T00:20:46;29.75;;;24.05;;
33844;SDS011;20145;43.118;25.694;2023-04-08T00:23:11;31.90;;;25.77;;
33844;SDS011;20145;43.118;25.694;2023-04-08T00:25:37;34.60;;;27.60;;
33844;SDS011;20145;43.118;25.694;2023-04-08T00:28:02;32.17;;;27.73;;
33844;SDS011;20145;43.118;25.694;2023-04-08T00:30:28;30.08;;;25.73;;
33844;SDS011;20145;43.118;25.694;2023-04-08T00:32:54;32.33;;;26.95;;
33844;SDS011;20145;43.118;25.694;2023-04-08T00:35:19;28.88;;;25.67;;
33844;SDS011;20145;43.118;25.694;2023-04-08T00:37:45;31.75;;;25.02;;
33844;SDS011;20145;43.118;25.694;2023-04-08T00:40:12;29.70;;;25.75;;
33844;SDS011;20145;43.118;25.694;2023-04-08T00:42:38;30.58;;;24.63;;
33844;SDS011;20145;43.118;25.694;2023-04-08T00:45:04;29.88;;;23.88;;
33844;SDS011;20145;43.118;25.694;2023-04-08T00:47:30;29.40;;;25.40;;
33844;SDS011;20145;43.118;25.694;2023-04-08T00:49:56;27.92;;;23.60;;
33844;SDS011;20145;43.118;25.694;2023-04-08T00:52:22;24.95;;;21.83;;
33844;SDS011;20145;43.118;25.694;2023-04-08T00:54:47;24.20;;;21.33;;
33844;SDS011;20145;43.118;25.694;2023-04-08T00:57:13;25.90;;;22.52;;
33844;SDS011;20145;43.118;25.694;2023-04-08T00:59:39;26.40;;;23.55;;
33844;SDS011;20145;43.118;25.694;2023-04-08T01:05:03;25.58;;;22.17;;
33844;SDS011;20145;43.118;25.694;2023-04-08T01:07:38;28.88;;;22.65;;
33844;SDS011;20145;43.118;25.694;2023-04-08T01:10:16;27.92;;;23.30;;
33844;SDS011;20145;43.118;25.694;2023-04-08T01:12:50;25.85;;;22.55;;
33844;SDS011;20145;43.118;25.694;2023-04-08T01:15:21;27.55;;;22.23;;
33844;SDS011;20145;43.118;25.694;2023-04-08T01:17:49;25.38;;;22.02;;
33844;SDS011;20145;43.118;25.694;2023-04-08T01:20:18;24.83;;;21.73;;
33844;SDS011;20145;43.118;25.694;2023-04-08T01:25:49;23.55;;;20.25;;
33844;SDS011;20145;43.118;25.694;2023-04-08T01:28:16;26.42;;;22.85;;
33844;SDS011;20145;43.118;25.694;2023-04-08T01:30:43;24.67;;;21.70;;
33844;SDS011;20145;43.118;25.694;2023-04-08T01:33:11;26.08;;;22.23;;
33844;SDS011;20145;43.118;25.694;2023-04-08T01:35:39;25.40;;;22.55;;
33844;SDS011;20145;43.118;25.694;2023-04-08T01:38:06;26.25;;;22.13;;
33844;SDS011;20145;43.118;25.694;2023-04-08T01:40:34;25.83;;;22.60;;
33844;SDS011;20145;43.118;25.694;2023-04-08T01:43:04;27.20;;;22.17;;
33844;SDS011;20145;43.118;25.694;2023-04-08T01:45:32;23.00;;;20.52;;
33844;SDS011;20145;43.118;25.694;2023-04-08T01:47:57;25.65;;;22.33;;
33844;SDS011;20145;43.118;25.694;2023-04-08T01:50:25;26.02;;;21.85;;
33844;SDS011;20145;43.118;25.694;2023-04-08T01:52:52;28.15;;;23.27;;
33844;SDS011;20145;43.118;25.694;2023-04-08T01:55:19;31.73;;;26.13;;
33844;SDS011;20145;43.118;25.694;2023-04-08T01:57:51;37.53;;;28.38;;
33844;SDS011;20145;43.118;25.694;2023-04-08T02:00:19;32.78;;;25.85;;
33844;SDS011;20145;43.118;25.694;2023-04-08T02:02:48;30.52;;;26.02;;
33844;SDS011;20145;43.118;25.694;2023-04-08T02:05:14;30.55;;;26.00;;
33844;SDS011;20145;43.118;25.694;2023-04-08T02:07:40;28.40;;;25.40;;
33844;SDS011;20145;43.118;25.694;2023-04-08T02:10:06;27.73;;;24.40;;
33844;SDS011;20145;43.118;25.694;2023-04-08T02:12:32;31.52;;;25.35;;
33844;SDS011;20145;43.118;25.694;2023-04-08T02:14:58;33.00;;;26.25;;
33844;SDS011;20145;43.118;25.694;2023-04-08T02:17:28;31.73;;;26.05;;
33844;SDS011;20145;43.118;25.694;2023-04-08T02:20:11;32.42;;;25.70;;
33844;SDS011;20145;43.118;25.694;2023-04-08T02:25:22;29.27;;;23.63;;
33844;SDS011;20145;43.118;25.694;2023-04-08T02:27:49;24.63;;;21.88;;
33844;SDS011;20145;43.118;25.694;2023-04-08T02:30:17;27.42;;;22.63;;
33844;SDS011;20145;43.118;25.694;2023-04-08T02:32:44;26.65;;;22.52;;
33844;SDS011;20145;43.118;25.694;2023-04-08T02:35:12;27.40;;;23.35;;
33844;SDS011;20145;43.118;25.694;2023-04-08T02:37:39;24.52;;;21.10;;
33844;SDS011;20145;43.118;25.694;2023-04-08T02:42:56;24.17;;;21.67;;
33844;SDS011;20145;43.118;25.694;2023-04-08T02:45:24;23.80;;;21.20;;
33844;SDS011;20145;43.118;25.694;2023-04-08T02:47:52;24.13;;;20.35;;
33844;SDS011;20145;43.118;25.694;2023-04-08T02:50:18;23.30;;;20.02;;
33844;SDS011;20145;43.118;25.694;2023-04-08T02:52:43;26.35;;;20.65;;
33844;SDS011;20145;43.118;25.694;2023-04-08T02:55:09;24.85;;;20.75;;
33844;SDS011;20145;43.118;25.694;2023-04-08T02:57:35;23.30;;;20.65;;
33844;SDS011;20145;43.118;25.694;2023-04-08T03:00:02;23.17;;;20.45;;
33844;SDS011;20145;43.118;25.694;2023-04-08T03:02:29;23.60;;;21.13;;
33844;SDS011;20145;43.118;25.694;2023-04-08T03:04:55;23.20;;;20.73;;
33844;SDS011;20145;43.118;25.694;2023-04-08T03:07:20;24.63;;;21.92;;
33844;SDS011;20145;43.118;25.694;2023-04-08T03:09:46;25.08;;;21.67;;
33844;SDS011;20145;43.118;25.694;2023-04-08T03:12:11;26.45;;;22.75;;
33844;SDS011;20145;43.118;25.694;2023-04-08T03:14:37;24.55;;;21.52;;
33844;SDS011;20145;43.118;25.694;2023-04-08T03:17:02;23.98;;;21.38;;
33844;SDS011;20145;43.118;25.694;2023-04-08T03:19:28;26.17;;;22.85;;
33844;SDS011;20145;43.118;25.694;2023-04-08T03:21:53;24.17;;;20.15;;
33844;SDS011;20145;43.118;25.694;2023-04-08T03:24:19;23.77;;;20.60;;
33844;SDS011;20145;43.118;25.694;2023-04-08T03:26:44;23.83;;;20.27;;
33844;SDS011;20145;43.118;25.694;2023-04-08T03:29:10;22.10;;;19.85;;
33844;SDS011;20145;43.118;25.694;2023-04-08T03:31:35;24.83;;;20.08;;
33844;SDS011;20145;43.118;25.694;2023-04-08T03:34:01;23.38;;;20.35;;
33844;SDS011;20145;43.118;25.694;2023-04-08T03:36:27;26.02;;;20.83;;
33844;SDS011;20145;43.118;25.694;2023-04-08T03:38:52;27.67;;;19.88;;
33844;SDS011;20145;43.118;25.694;2023-04-08T03:41:18;22.42;;;20.08;;
33844;SDS011;20145;43.118;25.694;2023-04-08T03:43:43;23.98;;;19.40;;
33844;SDS011;20145;43.118;25.694;2023-04-08T03:46:09;24.05;;;21.27;;
33844;SDS011;20145;43.118;25.694;2023-04-08T03:48:35;26.08;;;22.83;;
33844;SDS011;20145;43.118;25.694;2023-04-08T03:51:00;24.35;;;21.33;;
33844;SDS011;20145;43.118;25.694;2023-04-08T03:53:26;25.00;;;22.17;;
33844;SDS011;20145;43.118;25.694;2023-04-08T03:55:53;25.98;;;22.33;;
33844;SDS011;20145;43.118;25.694;2023-04-08T03:58:19;29.65;;;25.08;;
33844;SDS011;20145;43.118;25.694;2023-04-08T04:00:45;27.63;;;21.80;;
33844;SDS011;20145;43.118;25.694;2023-04-08T04:03:11;26.75;;;22.30;;
33844;SDS011;20145;43.118;25.694;2023-04-08T04:05:37;24.67;;;20.83;;
33844;SDS011;20145;43.118;25.694;2023-04-08T04:08:03;25.92;;;23.15;;
33844;SDS011;20145;43.118;25.694;2023-04-08T04:10:29;36.50;;;28.15;;
33844;SDS011;20145;43.118;25.694;2023-04-08T04:12:55;35.22;;;28.40;;
33844;SDS011;20145;43.118;25.694;2023-04-08T04:15:20;30.27;;;25.50;;
33844;SDS011;20145;43.118;25.694;2023-04-08T04:17:49;27.90;;;24.02;;
33844;SDS011;20145;43.118;25.694;2023-04-08T04:20:15;26.48;;;22.65;;
33844;SDS011;20145;43.118;25.694;2023-04-08T04:22:41;30.77;;;24.65;;
33844;SDS011;20145;43.118;25.694;2023-04-08T04:25:07;29.73;;;24.38;;
33844;SDS011;20145;43.118;25.694;2023-04-08T04:27:33;28.65;;;23.73;;
33844;SDS011;20145;43.118;25.694;2023-04-08T04:29:59;33.00;;;24.23;;
33844;SDS011;20145;43.118;25.694;2023-04-08T04:32:25;31.58;;;25.50;;
33844;SDS011;20145;43.118;25.694;2023-04-08T04:34:51;32.90;;;27.02;;
33844;SDS011;20145;43.118;25.694;2023-04-08T04:37:16;40.13;;;32.35;;
33844;SDS011;20145;43.118;25.694;2023-04-08T04:39:42;41.13;;;33.33;;
33844;SDS011;20145;43.118;25.694;2023-04-08T04:42:08;46.72;;;33.40;;
33844;SDS011;20145;43.118;25.694;2023-04-08T04:44:33;35.95;;;29.42;;
33844;SDS011;20145;43.118;25.694;2023-04-08T04:46:59;40.50;;;31.90;;
33844;SDS011;20145;43.118;25.694;2023-04-08T04:49:25;38.35;;;31.70;;
33844;SDS011;20145;43.118;25.694;2023-04-08T04:51:50;35.53;;;29.55;;
33844;SDS011;20145;43.118;25.694;2023-04-08T04:54:16;33.90;;;27.25;;
33844;SDS011;20145;43.118;25.694;2023-04-08T04:56:42;33.88;;;27.65;;
33844;SDS011;20145;43.118;25.694;2023-04-08T04:59:07;37.78;;;27.88;;
33844;SDS011;20145;43.118;25.694;2023-04-08T05:01:33;30.92;;;25.77;;
33844;SDS011;20145;43.118;25.694;2023-04-08T05:03:58;37.42;;;28.17;;
33844;SDS011;20145;43.118;25.694;2023-04-08T05:06:24;34.40;;;28.70;;
33844;SDS011;20145;43.118;25.694;2023-04-08T05:08:51;35.45;;;27.48;;
33844;SDS011;20145;43.118;25.694;2023-04-08T05:11:17;31.98;;;27.63;;
33844;SDS011;20145;43.118;25.694;2023-04-08T05:13:43;32.97;;;27.27;;
33844;SDS011;20145;43.118;25.694;2023-04-08T05:16:09;37.78;;;29.27;;
33844;SDS011;20145;43.118;25.694;2023-04-08T05:18:35;31.15;;;26.75;;
33844;SDS011;20145;43.118;25.694;2023-04-08T05:21:01;32.95;;;27.02;;
33844;SDS011;20145;43.118;25.694;2023-04-08T05:23:27;35.20;;;27.77;;
33844;SDS011;20145;43.118;25.694;2023-04-08T05:25:52;33.92;;;27.67;;
33844;SDS011;20145;43.118;25.694;2023-04-08T05:28:18;29.52;;;24.20;;
33844;SDS011;20145;43.118;25.694;2023-04-08T05:30:50;26.25;;;23.17;;
33844;SDS011;20145;43.118;25.694;2023-04-08T05:33:16;26.65;;;22.55;;
33844;SDS011;20145;43.118;25.694;2023-04-08T05:35:42;27.70;;;23.17;;
33844;SDS011;20145;43.118;25.694;2023-04-08T05:38:08;25.10;;;22.08;;
33844;SDS011;20145;43.118;25.694;2023-04-08T05:40:34;32.72;;;24.30;;
33844;SDS011;20145;43.118;25.694;2023-04-08T05:42:59;31.45;;;27.60;;
33844;SDS011;20145;43.118;25.694;2023-04-08T05:45:26;38.13;;;29.67;;
33844;SDS011;20145;43.118;25.694;2023-04-08T05:47:52;32.58;;;26.52;;
33844;SDS011;20145;43.118;25.694;2023-04-08T05:50:18;27.42;;;23.27;;
33844;SDS011;20145;43.118;25.694;2023-04-08T05:52:43;26.85;;;23.90;;
33844;SDS011;20145;43.118;25.694;2023-04-08T05:55:10;30.20;;;24.80;;
33844;SDS011;20145;43.118;25.694;2023-04-08T05:57:36;32.38;;;25.17;;
33844;SDS011;20145;43.118;25.694;2023-04-08T06:00:03;29.63;;;23.15;;
33844;SDS011;20145;43.118;25.694;2023-04-08T06:02:29;26.52;;;21.77;;
33844;SDS011;20145;43.118;25.694;2023-04-08T06:04:55;31.42;;;22.83;;
33844;SDS011;20145;43.118;25.694;2023-04-08T06:07:21;26.13;;;22.55;;
33844;SDS011;20145;43.118;25.694;2023-04-08T06:09:46;27.20;;;22.33;;
33844;SDS011;20145;43.118;25.694;2023-04-08T06:12:12;43.17;;;25.52;;
33844;SDS011;20145;43.118;25.694;2023-04-08T06:14:37;33.25;;;24.50;;
33844;SDS011;20145;43.118;25.694;2023-04-08T06:17:03;27.95;;;24.27;;
33844;SDS011;20145;43.118;25.694;2023-04-08T06:19:28;32.20;;;24.73;;
33844;SDS011;20145;43.118;25.694;2023-04-08T06:21:54;61.67;;;34.42;;
33844;SDS011;20145;43.118;25.694;2023-04-08T06:24:25;24.92;;;20.13;;
33844;SDS011;20145;43.118;25.694;2023-04-08T06:26:51;22.73;;;19.70;;
33844;SDS011;20145;43.118;25.694;2023-04-08T06:29:18;22.25;;;19.30;;
33844;SDS011;20145;43.118;25.694;2023-04-08T06:31:44;24.20;;;19.88;;
33844;SDS011;20145;43.118;25.694;2023-04-08T06:34:09;25.63;;;20.33;;
33844;SDS011;20145;43.118;25.694;2023-04-08T06:36:35;23.42;;;19.83;;
33844;SDS011;20145;43.118;25.694;2023-04-08T06:39:00;23.65;;;20.98;;
33844;SDS011;20145;43.118;25.694;2023-04-08T06:41:26;26.08;;;21.13;;
33844;SDS011;20145;43.118;25.694;2023-04-08T06:43:51;26.30;;;20.85;;
33844;SDS011;20145;43.118;25.694;2023-04-08T06:46:17;26.85;;;23.08;;
33844;SDS011;20145;43.118;25.694;2023-04-08T06:48:42;24.80;;;20.30;;
33844;SDS011;20145;43.118;25.694;2023-04-08T06:51:08;25.02;;;20.83;;
33844;SDS011;20145;43.118;25.694;2023-04-08T06:53:34;25.52;;;20.48;;
33844;SDS011;20145;43.118;25.694;2023-04-08T06:55:59;22.75;;;20.40;;
33844;SDS011;20145;43.118;25.694;2023-04-08T06:58:25;27.95;;;19.90;;
33844;SDS011;20145;43.118;25.694;2023-04-08T07:00:52;21.80;;;18.48;;
33844;SDS011;20145;43.118;25.694;2023-04-08T07:03:19;19.73;;;17.63;;
33844;SDS011;20145;43.118;25.694;2023-04-08T07:05:44;21.08;;;18.33;;
33844;SDS011;20145;43.118;25.694;2023-04-08T07:08:11;23.38;;;19.02;;
33844;SDS011;20145;43.118;25.694;2023-04-08T07:10:37;28.00;;;18.55;;
33844;SDS011;20145;43.118;25.694;2023-04-08T07:13:02;21.80;;;18.77;;
33844;SDS011;20145;43.118;25.694;2023-04-08T07:15:28;25.40;;;18.70;;
33844;SDS011;20145;43.118;25.694;2023-04-08T07:17:53;26.30;;;19.10;;
33844;SDS011;20145;43.118;25.694;2023-04-08T07:20:22;27.02;;;20.63;;
33844;SDS011;20145;43.118;25.694;2023-04-08T07:22:48;21.33;;;18.20;;
33844;SDS011;20145;43.118;25.694;2023-04-08T07:25:14;22.33;;;19.83;;
33844;SDS011;20145;43.118;25.694;2023-04-08T07:27:40;21.90;;;19.58;;
33844;SDS011;20145;43.118;25.694;2023-04-08T07:30:06;25.85;;;19.60;;
33844;SDS011;20145;43.118;25.694;2023-04-08T07:32:32;21.73;;;18.58;;
33844;SDS011;20145;43.118;25.694;2023-04-08T07:34:59;22.60;;;19.33;;
33844;SDS011;20145;43.118;25.694;2023-04-08T07:37:25;20.77;;;16.95;;
33844;SDS011;20145;43.118;25.694;2023-04-08T07:39:51;27.95;;;19.92;;
33844;SDS011;20145;43.118;25.694;2023-04-08T07:42:17;27.55;;;22.17;;
33844;SDS011;20145;43.118;25.694;2023-04-08T07:44:42;23.40;;;19.67;;
33844;SDS011;20145;43.118;25.694;2023-04-08T07:47:10;24.92;;;18.85;;
33844;SDS011;20145;43.118;25.694;2023-04-08T07:49:38;27.83;;;21.27;;
33844;SDS011;20145;43.118;25.694;2023-04-08T07:52:04;24.38;;;18.50;;
33844;SDS011;20145;43.118;25.694;2023-04-08T07:54:31;34.72;;;22.13;;
33844;SDS011;20145;43.118;25.694;2023-04-08T07:57:00;21.58;;;17.38;;
33844;SDS011;20145;43.118;25.694;2023-04-08T07:59:26;21.42;;;18.13;;
33844;SDS011;20145;43.118;25.694;2023-04-08T08:01:52;21.42;;;16.60;;
33844;SDS011;20145;43.118;25.694;2023-04-08T08:04:18;23.67;;;16.92;;
33844;SDS011;20145;43.118;25.694;2023-04-08T08:06:44;20.85;;;15.75;;
33844;SDS011;20145;43.118;25.694;2023-04-08T08:09:10;21.98;;;17.42;;
33844;SDS011;20145;43.118;25.694;2023-04-08T08:11:36;20.52;;;17.30;;
33844;SDS011;20145;43.118;25.694;2023-04-08T08:14:01;21.00;;;17.13;;
33844;SDS011;20145;43.118;25.694;2023-04-08T08:16:28;20.88;;;16.52;;
33844;SDS011;20145;43.118;25.694;2023-04-08T08:18:56;21.88;;;16.52;;
33844;SDS011;20145;43.118;25.694;2023-04-08T08:21:22;16.88;;;15.10;;
33844;SDS011;20145;43.118;25.694;2023-04-08T08:23:48;20.10;;;15.88;;
33844;SDS011;20145;43.118;25.694;2023-04-08T08:26:15;17.45;;;15.35;;
33844;SDS011;20145;43.118;25.694;2023-04-08T08:28:41;20.60;;;16.45;;
33844;SDS011;20145;43.118;25.694;2023-04-08T08:31:06;18.00;;;15.27;;
33844;SDS011;20145;43.118;25.694;2023-04-08T08:33:32;21.50;;;15.68;;
33844;SDS011;20145;43.118;25.694;2023-04-08T08:35:58;18.23;;;14.82;;
33844;SDS011;20145;43.118;25.694;2023-04-08T08:38:24;18.98;;;15.73;;
33844;SDS011;20145;43.118;25.694;2023-04-08T08:40:53;19.80;;;14.88;;
33844;SDS011;20145;43.118;25.694;2023-04-08T08:43:20;20.38;;;16.08;;
33844;SDS011;20145;43.118;25.694;2023-04-08T08:45:46;16.50;;;14.57;;
33844;SDS011;20145;43.118;25.694;2023-04-08T08:48:12;18.40;;;14.90;;
33844;SDS011;20145;43.118;25.694;2023-04-08T08:50:38;19.02;;;15.63;;
33844;SDS011;20145;43.118;25.694;2023-04-08T08:53:04;20.10;;;16.05;;
33844;SDS011;20145;43.118;25.694;2023-04-08T08:55:30;20.73;;;16.75;;
33844;SDS011;20145;43.118;25.694;2023-04-08T08:57:58;19.75;;;16.17;;
33844;SDS011;20145;43.118;25.694;2023-04-08T09:00:35;23.50;;;16.38;;
33844;SDS011;20145;43.118;25.694;2023-04-08T09:05:53;20.05;;;16.13;;
33844;SDS011;20145;43.118;25.694;2023-04-08T09:10:51;19.27;;;15.05;;
33844;SDS011;20145;43.118;25.694;2023-04-08T09:13:18;23.25;;;16.73;;
33844;SDS011;20145;43.118;25.694;2023-04-08T09:16:02;20.23;;;15.18;;
33844;SDS011;20145;43.118;25.694;2023-04-08T09:18:30;17.02;;;15.05;;
33844;SDS011;20145;43.118;25.694;2023-04-08T09:20:58;18.80;;;14.20;;
33844;SDS011;20145;43.118;25.694;2023-04-08T09:23:32;17.40;;;14.75;;
33844;SDS011;20145;43.118;25.694;2023-04-08T09:34:08;15.95;;;13.65;;
33844;SDS011;20145;43.118;25.694;2023-04-08T09:36:37;15.52;;;13.52;;
33844;SDS011;20145;43.118;25.694;2023-04-08T09:39:03;15.63;;;12.63;;
33844;SDS011;20145;43.118;25.694;2023-04-08T09:41:32;17.33;;;13.50;;
33844;SDS011;20145;43.118;25.694;2023-04-08T09:43:59;17.55;;;14.52;;
33844;SDS011;20145;43.118;25.694;2023-04-08T09:46:32;19.23;;;14.13;;
33844;SDS011;20145;43.118;25.694;2023-04-08T09:49:11;15.75;;;12.93;;
33844;SDS011;20145;43.118;25.694;2023-04-08T09:51:53;18.17;;;14.32;;
33844;SDS011;20145;43.118;25.694;2023-04-08T10:00:18;15.38;;;13.48;;
33844;SDS011;20145;43.118;25.694;2023-04-08T10:02:58;16.20;;;14.32;;
33844;SDS011;20145;43.118;25.694;2023-04-08T10:05:37;14.85;;;13.23;;
33844;SDS011;20145;43.118;25.694;2023-04-08T10:08:05;14.70;;;12.40;;
33844;SDS011;20145;43.118;25.694;2023-04-08T10:10:33;17.20;;;13.57;;
33844;SDS011;20145;43.118;25.694;2023-04-08T10:13:01;15.35;;;13.73;;
33844;SDS011;20145;43.118;25.694;2023-04-08T10:15:28;17.23;;;13.98;;
33844;SDS011;20145;43.118;25.694;2023-04-08T10:23:07;15.30;;;13.25;;
33844;SDS011;20145;43.118;25.694;2023-04-08T10:30:39;15.23;;;12.50;;
33844;SDS011;20145;43.118;25.694;2023-04-08T10:33:09;13.63;;;11.38;;
33844;SDS011;20145;43.118;25.694;2023-04-08T10:38:13;15.02;;;13.30;;
33844;SDS011;20145;43.118;25.694;2023-04-08T10:40:39;14.90;;;13.10;;
33844;SDS011;20145;43.118;25.694;2023-04-08T10:43:09;13.93;;;12.18;;
33844;SDS011;20145;43.118;25.694;2023-04-08T10:45:36;13.85;;;12.38;;
33844;SDS011;20145;43.118;25.694;2023-04-08T10:48:21;13.75;;;12.27;;
33844;SDS011;20145;43.118;25.694;2023-04-08T10:50:52;18.35;;;13.20;;
33844;SDS011;20145;43.118;25.694;2023-04-08T10:53:31;13.77;;;12.27;;
33844;SDS011;20145;43.118;25.694;2023-04-08T10:56:04;15.98;;;13.38;;
33844;SDS011;20145;43.118;25.694;2023-04-08T10:58:31;14.35;;;12.65;;
33844;SDS011;20145;43.118;25.694;2023-04-08T11:01:02;15.02;;;13.48;;
33844;SDS011;20145;43.118;25.694;2023-04-08T11:03:34;14.32;;;12.82;;
33844;SDS011;20145;43.118;25.694;2023-04-08T11:06:01;14.30;;;12.90;;
33844;SDS011;20145;43.118;25.694;2023-04-08T11:08:31;13.82;;;12.27;;
33844;SDS011;20145;43.118;25.694;2023-04-08T11:10:57;17.58;;;13.45;;
33844;SDS011;20145;43.118;25.694;2023-04-08T11:13:25;12.32;;;10.43;;
33844;SDS011;20145;43.118;25.694;2023-04-08T11:15:52;12.05;;;10.85;;
33844;SDS011;20145;43.118;25.694;2023-04-08T11:18:19;17.42;;;12.65;;
33844;SDS011;20145;43.118;25.694;2023-04-08T11:20:49;14.25;;;12.55;;
33844;SDS011;20145;43.118;25.694;2023-04-08T11:23:15;14.60;;;13.10;;
33844;SDS011;20145;43.118;25.694;2023-04-08T11:25:42;14.57;;;12.88;;
33844;SDS011;20145;43.118;25.694;2023-04-08T11:28:09;13.55;;;12.15;;
33844;SDS011;20145;43.118;25.694;2023-04-08T11:30:37;13.52;;;12.13;;
33844;SDS011;20145;43.118;25.694;2023-04-08T11:33:03;12.43;;;11.13;;
33844;SDS011;20145;43.118;25.694;2023-04-08T11:35:29;12.60;;;11.27;;
33844;SDS011;20145;43.118;25.694;2023-04-08T11:37:55;12.00;;;10.77;;
33844;SDS011;20145;43.118;25.694;2023-04-08T11:40:21;12.65;;;11.02;;
33844;SDS011;20145;43.118;25.694;2023-04-08T11:42:48;10.93;;;9.82;;
33844;SDS011;20145;43.118;25.694;2023-04-08T11:45:15;12.18;;;10.88;;
33844;SDS011;20145;43.118;25.694;2023-04-08T11:47:42;12.30;;;10.70;;
33844;SDS011;20145;43.118;25.694;2023-04-08T11:50:08;13.18;;;9.95;;
33844;SDS011;20145;43.118;25.694;2023-04-08T11:52:44;11.32;;;10.05;;
33844;SDS011;20145;43.118;25.694;2023-04-08T11:55:12;10.20;;;9.30;;
33844;SDS011;20145;43.118;25.694;2023-04-08T11:57:50;9.70;;;8.70;;
33844;SDS011;20145;43.118;25.694;2023-04-08T12:00:17;9.98;;;8.98;;
33844;SDS011;20145;43.118;25.694;2023-04-08T12:02:43;10.90;;;9.80;;
33844;SDS011;20145;43.118;25.694;2023-04-08T12:05:09;9.77;;;8.82;;
33844;SDS011;20145;43.118;25.694;2023-04-08T12:07:35;11.95;;;8.55;;
33844;SDS011;20145;43.118;25.694;2023-04-08T12:10:00;11.15;;;10.07;;
33844;SDS011;20145;43.118;25.694;2023-04-08T12:12:26;12.15;;;10.43;;
33844;SDS011;20145;43.118;25.694;2023-04-08T12:14:51;9.57;;;8.57;;
33844;SDS011;20145;43.118;25.694;2023-04-08T12:17:17;10.13;;;9.23;;
33844;SDS011;20145;43.118;25.694;2023-04-08T12:19:43;10.43;;;9.20;;
33844;SDS011;20145;43.118;25.694;2023-04-08T12:22:09;8.57;;;7.88;;
33844;SDS011;20145;43.118;25.694;2023-04-08T12:24:34;11.98;;;8.10;;
33844;SDS011;20145;43.118;25.694;2023-04-08T12:27:00;8.80;;;8.00;;
33844;SDS011;20145;43.118;25.694;2023-04-08T12:29:27;8.57;;;7.78;;
33844;SDS011;20145;43.118;25.694;2023-04-08T12:31:53;9.15;;;8.18;;
33844;SDS011;20145;43.118;25.694;2023-04-08T12:34:18;8.45;;;7.65;;
33844;SDS011;20145;43.118;25.694;2023-04-08T12:36:44;10.00;;;9.00;;
33844;SDS011;20145;43.118;25.694;2023-04-08T12:39:10;8.85;;;7.95;;
33844;SDS011;20145;43.118;25.694;2023-04-08T12:41:35;9.60;;;8.65;;
33844;SDS011;20145;43.118;25.694;2023-04-08T12:44:01;10.38;;;9.48;;
33844;SDS011;20145;43.118;25.694;2023-04-08T12:46:26;9.00;;;8.18;;
33844;SDS011;20145;43.118;25.694;2023-04-08T12:48:52;10.60;;;9.60;;
33844;SDS011;20145;43.118;25.694;2023-04-08T12:51:18;10.50;;;9.40;;
33844;SDS011;20145;43.118;25.694;2023-04-08T12:53:44;10.38;;;9.38;;
33844;SDS011;20145;43.118;25.694;2023-04-08T12:56:09;9.80;;;8.60;;
33844;SDS011;20145;43.118;25.694;2023-04-08T12:58:35;8.98;;;8.13;;
33844;SDS011;20145;43.118;25.694;2023-04-08T13:01:01;8.57;;;7.78;;
33844;SDS011;20145;43.118;25.694;2023-04-08T13:03:26;9.82;;;7.72;;
33844;SDS011;20145;43.118;25.694;2023-04-08T13:05:55;9.73;;;8.75;;
33844;SDS011;20145;43.118;25.694;2023-04-08T13:08:21;9.07;;;7.68;;
33844;SDS011;20145;43.118;25.694;2023-04-08T13:10:47;9.23;;;8.30;;
33844;SDS011;20145;43.118;25.694;2023-04-08T13:13:12;8.68;;;7.88;;
33844;SDS011;20145;43.118;25.694;2023-04-08T13:15:38;9.65;;;8.63;;
33844;SDS011;20145;43.118;25.694;2023-04-08T13:18:04;8.05;;;7.22;;
33844;SDS011;20145;43.118;25.694;2023-04-08T13:20:29;8.38;;;7.68;;
33844;SDS011;20145;43.118;25.694;2023-04-08T13:22:55;10.18;;;8.80;;
33844;SDS011;20145;43.118;25.694;2023-04-08T13:25:21;8.85;;;7.95;;
33844;SDS011;20145;43.118;25.694;2023-04-08T13:27:46;10.18;;;8.55;;
33844;SDS011;20145;43.118;25.694;2023-04-08T13:30:12;8.93;;;8.05;;
33844;SDS011;20145;43.118;25.694;2023-04-08T13:32:38;9.13;;;8.25;;
33844;SDS011;20145;43.118;25.694;2023-04-08T13:35:04;7.72;;;7.03;;
33844;SDS011;20145;43.118;25.694;2023-04-08T13:37:29;10.75;;;8.43;;
33844;SDS011;20145;43.118;25.694;2023-04-08T13:39:55;9.60;;;8.60;;
33844;SDS011;20145;43.118;25.694;2023-04-08T13:42:21;14.80;;;10.93;;
33844;SDS011;20145;43.118;25.694;2023-04-08T13:44:47;15.25;;;10.77;;
33844;SDS011;20145;43.118;25.694;2023-04-08T13:47:13;12.73;;;9.75;;
33844;SDS011;20145;43.118;25.694;2023-04-08T13:49:39;10.98;;;9.70;;
33844;SDS011;20145;43.118;25.694;2023-04-08T13:52:05;11.15;;;9.63;;
33844;SDS011;20145;43.118;25.694;2023-04-08T13:54:31;10.38;;;9.38;;
33844;SDS011;20145;43.118;25.694;2023-04-08T13:56:57;10.43;;;9.43;;
33844;SDS011;20145;43.118;25.694;2023-04-08T13:59:22;10.32;;;9.25;;
33844;SDS011;20145;43.118;25.694;2023-04-08T14:01:48;9.00;;;8.10;;
33844;SDS011;20145;43.118;25.694;2023-04-08T14:04:18;8.45;;;7.65;;
33844;SDS011;20145;43.118;25.694;2023-04-08T14:06:46;8.27;;;7.47;;
33844;SDS011;20145;43.118;25.694;2023-04-08T14:09:14;9.43;;;8.60;;
33844;SDS011;20145;43.118;25.694;2023-04-08T14:11:40;16.88;;;13.18;;
33844;SDS011;20145;43.118;25.694;2023-04-08T14:14:06;15.75;;;14.05;;
33844;SDS011;20145;43.118;25.694;2023-04-08T14:16:31;20.55;;;18.35;;
33844;SDS011;20145;43.118;25.694;2023-04-08T14:18:57;18.92;;;16.05;;
33844;SDS011;20145;43.118;25.694;2023-04-08T14:21:22;14.65;;;12.35;;
33844;SDS011;20145;43.118;25.694;2023-04-08T14:23:48;14.32;;;12.88;;
33844;SDS011;20145;43.118;25.694;2023-04-08T14:26:14;16.63;;;14.88;;
33844;SDS011;20145;43.118;25.694;2023-04-08T14:28:40;17.58;;;15.88;;
33844;SDS011;20145;43.118;25.694;2023-04-08T14:31:05;27.17;;;24.42;;
33844;SDS011;20145;43.118;25.694;2023-04-08T14:33:31;20.45;;;17.63;;
33844;SDS011;20145;43.118;25.694;2023-04-08T14:35:57;20.20;;;17.75;;
33844;SDS011;20145;43.118;25.694;2023-04-08T14:38:24;20.63;;;17.45;;
33844;SDS011;20145;43.118;25.694;2023-04-08T14:40:49;18.95;;;16.95;;
33844;SDS011;20145;43.118;25.694;2023-04-08T14:43:15;23.65;;;19.58;;
33844;SDS011;20145;43.118;25.694;2023-04-08T14:45:40;24.20;;;20.63;;
33844;SDS011;20145;43.118;25.694;2023-04-08T14:48:06;18.52;;;16.60;;
33844;SDS011;20145;43.118;25.694;2023-04-08T14:50:32;20.60;;;18.40;;
33844;SDS011;20145;43.118;25.694;2023-04-08T14:52:57;28.08;;;24.95;;